Latest Weather Observations for Central Arnhem Plateau

IDD60801

Issued at 6:31 pm CST Friday 28 August 2015 (issued every 30 minutes, with the page automatically refreshed every 10 minutes)

About weather observations | Map of weather stations | Latest weather observations for NT | Other Formats
Station Details ID: 014909 Name: CENTRAL ARNHEM PLATEAU Lat: -13.33 Lon: 133.09 Height: 416.0 m
Data from the previous 72 hours. | See also: Recent months at Central Arnhem Plateau
Date/Time
CST
Temp
°C
App
Temp
°C
Dew
Point
Rel
Hum
%
Delta-T
°C
Wind Press
QNH
hPa
Press
MSL
hPa
Rain
since 9 am
mm
Dir
 
Spd
km/h
Gust
km/h
Spd
kts
Gust
kts
28/06:30pm 30.3 28.2 11.3 31 11.2 ESE 13 15 7 8 1014.8 1012.7 0.0
28/06:00pm 30.9 28.3 10.8 29 11.8 ESE 15 20 8 11 1014.4 1012.3 0.0
28/05:30pm 31.6 29.3 10.3 27 12.4 SSE 13 20 7 11 1014.0 1011.9 0.0
28/05:00pm 31.5 28.1 9.1 25 12.8 ESE 17 28 9 15 1013.7 1011.7 0.0
28/04:30pm 31.6 29.1 9.8 26 12.6 SE 13 20 7 11 1013.7 1011.7 0.0
28/04:00pm 32.9 31.5 10.9 26 13.0 S 9 19 5 10 1013.7 1011.7 0.0
28/03:30pm 31.9 28.0 8.8 24 13.2 ESE 19 28 10 15 1014.0 1011.9 0.0
28/03:00pm 32.0 29.4 9.5 25 13.0 E 13 22 7 12 1014.2 1012.1 0.0
28/02:30pm 31.8 28.8 10.5 27 12.5 E 17 28 9 15 1014.7 1012.6 0.0
28/02:00pm 31.5 28.4 10.2 27 12.4 ENE 17 26 9 14 1015.1 1013.0 0.0
28/01:30pm 30.8 27.2 10.7 29 11.7 ESE 20 32 11 17 1015.6 1013.5 0.0
28/01:00pm 31.5 29.2 11.8 30 11.7 ESE 15 28 8 15 1016.1 1014.1 0.0
28/12:30pm 30.4 26.1 10.9 30 11.4 ESE 24 33 13 18 1016.8 1014.7 0.0
28/12:00pm 29.5 26.2 11.5 33 10.6 ENE 20 30 11 16 1017.4 1015.3 0.0
28/11:30am 28.8 24.9 10.9 33 10.4 ENE 22 33 12 18 1017.9 1015.9 0.0
28/11:00am 28.6 24.0 11.2 34 10.1 E 26 37 14 20 1018.4 1016.4 0.0
28/10:30am 28.2 23.3 11.3 35 9.8 E 28 41 15 22 1018.8 1016.8 0.0
28/10:00am 27.7 23.8 12.1 38 9.2 E 24 35 13 19 1018.8 1016.8 0.0
28/09:30am 26.8 24.1 12.8 42 8.3 E 19 26 10 14 1019.0 1016.9 0.0
28/09:00am 24.0 22.9 14.4 55 5.8 E 13 19 7 10 1018.8 1016.8 0.0
28/08:30am 23.1 23.5 15.2 61 4.8 ESE 7 11 4 6 1018.6 1016.6 0.0
28/08:00am 21.5 22.1 15.3 68 3.8 SE 6 7 3 4 1018.4 1016.4 0.0
28/07:30am 20.4 22.4 16.0 76 2.7 CALM 0 0 0 0 1018.2 1016.2 0.0
28/07:00am 17.8 19.2 14.3 80 2.0 CALM 0 0 0 0 1018.0 1016.0 0.0
28/06:30am 17.7 19.0 14.0 79 2.2 CALM 0 0 0 0 1017.5 1015.4 0.0
28/06:00am 17.6 17.5 13.3 76 2.5 ENE 6 11 3 6 1017.3 1015.2 0.0
28/05:30am 18.8 19.9 14.5 76 2.5 NE 2 7 1 4 1017.0 1014.9 0.0
28/05:00am 19.7 21.5 15.4 76 2.6 CALM 0 0 0 0 1016.9 1014.8 0.0
28/04:30am 19.6 21.0 14.4 72 3.1 CALM 0 0 0 0 1016.9 1014.8 0.0
28/04:00am 20.4 22.0 15.0 71 3.2 CALM 0 0 0 0 1016.9 1014.8 0.0
28/03:30am 21.2 22.1 15.1 68 3.7 NNE 4 9 2 5 1016.8 1014.7 0.0
28/03:00am 22.0 22.7 15.6 67 3.9 NNE 6 9 3 5 1016.9 1014.8 0.0
28/02:30am 22.5 23.1 15.4 64 4.3 N 6 9 3 5 1017.2 1015.1 0.0
28/02:00am 22.7 23.2 15.0 61 4.7 N 6 7 3 4 1017.4 1015.3 0.0
28/01:30am 23.2 23.0 14.7 58 5.1 NE 9 11 5 6 1017.5 1015.4 0.0
28/01:00am 23.8 23.1 14.2 55 5.8 ENE 11 20 6 11 1017.5 1015.4 0.0
28/12:30am 24.5 23.2 12.5 47 7.0 ENE 11 15 6 8 1017.6 1015.5 0.0
28/12:00am 23.9 23.9 11.2 44 7.2 NNE 2 9 1 5 1017.7 1015.6 0.0
 
Date/Time
CST
Temp
°C
App
Temp
°C
Dew
Point
Rel
Hum
%
Delta-T
°C
Wind Press
QNH
hPa
Press
MSL
hPa
Rain
since 9 am
mm
Dir
 
Spd
km/h
Gust
km/h
Spd
kts
Gust
kts
27/11:30pm 24.1 22.8 10.0 41 7.9 NE 7 9 4 5 1017.7 1015.6 0.0
27/11:00pm 24.9 23.2 10.0 39 8.4 ENE 9 11 5 6 1017.8 1015.7 0.0
27/10:30pm 25.3 23.7 8.7 35 9.1 E 7 11 4 6 1017.6 1015.5 0.0
27/10:00pm 24.7 23.2 8.6 36 8.8 ENE 6 9 3 5 1017.4 1015.3 0.0
27/09:30pm 24.7 24.3 8.2 35 9.0 CALM 0 0 0 0 1017.1 1015.0 0.0
27/09:00pm 25.7 24.3 7.3 31 9.9 E 4 6 2 3 1016.9 1014.8 0.0
27/08:30pm 26.2 25.1 6.8 29 10.4 E 2 6 1 3 1016.5 1014.4 0.0
27/08:00pm 27.3 25.4 6.7 27 11.1 E 6 7 3 4 1016.2 1014.2 0.0
27/07:30pm 29.1 27.1 7.1 25 12.0 E 7 11 4 6 1015.9 1013.9 0.0
27/07:00pm 29.6 26.8 6.9 24 12.4 E 11 13 6 7 1015.5 1013.4 0.0
27/06:30pm 30.5 27.3 7.0 23 12.9 E 13 17 7 9 1015.1 1013.0 0.0
27/06:00pm 31.4 27.7 6.5 21 13.6 E 15 20 8 11 1014.6 1012.5 0.0
27/05:30pm 31.7 27.3 6.7 21 13.8 E 19 26 10 14 1014.3 1012.2 0.0
27/05:00pm 32.3 27.7 5.7 19 14.4 E 19 26 10 14 1014.1 1012.0 0.0
27/04:30pm 32.3 27.7 5.7 19 14.4 E 19 30 10 16 1014.0 1011.9 0.0
27/04:00pm 32.6 28.1 6.0 19 14.5 E 19 30 10 16 1014.0 1011.9 0.0
27/03:30pm 32.5 28.1 6.7 20 14.3 E 19 30 10 16 1014.1 1012.0 0.0
27/03:00pm 32.2 27.9 7.1 21 13.9 SE 19 30 10 16 1014.4 1012.3 0.0
27/02:30pm 32.1 27.9 8.4 23 13.4 ESE 20 30 11 16 1014.7 1012.6 0.0
27/02:00pm 31.1 27.6 8.8 25 12.7 ESE 17 26 9 14 1015.2 1013.1 0.0
27/01:30pm 31.3 27.3 8.3 24 13.0 ESE 19 28 10 15 1015.8 1013.8 0.0
27/01:00pm 30.5 26.2 7.7 24 12.7 ESE 20 28 11 15 1016.5 1014.4 0.0
27/12:30pm 30.4 27.0 9.3 27 12.0 ESE 17 28 9 15 1016.9 1014.8 0.0
27/12:00pm 29.9 28.0 8.9 27 11.9 E 9 28 5 15 1017.3 1015.2 0.0
27/11:30am 28.5 26.3 10.7 33 10.3 SE 13 22 7 12 1017.9 1015.9 0.0
27/11:00am 27.9 25.5 10.1 33 10.2 SE 13 20 7 11 1018.4 1016.4 0.0
27/10:30am 27.7 25.3 10.0 33 10.1 SE 13 24 7 13 1018.6 1016.6 0.0
27/10:00am 26.7 25.7 12.4 41 8.4 E 9 22 5 12 1018.4 1016.4 0.0
27/09:30am 25.0 24.6 15.3 55 5.9 E 11 15 6 8 1018.5 1016.5 0.0
27/09:00am 23.9 23.4 14.9 57 5.5 E 11 15 6 8 1018.3 1016.3 -
27/08:30am 23.2 23.9 15.5 62 4.7 SE 6 11 3 6 1018.2 1016.2 -
27/08:00am 22.1 22.7 15.9 68 3.8 SSE 7 9 4 5 1017.9 1015.9 -
27/07:30am 19.2 20.3 13.6 70 3.3 CALM 0 4 0 2 1017.6 1015.5 -
27/07:00am 17.4 17.0 12.5 73 2.8 ENE 6 7 3 4 1017.3 1015.2 -
27/06:30am 17.7 17.4 12.6 72 2.9 E 6 7 3 4 1016.9 1014.8 -
27/06:00am 19.7 20.2 12.9 65 3.9 S 2 7 1 4 1016.7 1014.6 -
27/05:30am 19.2 19.9 12.2 64 4.0 CALM 0 0 0 0 1016.3 1014.3 -
27/05:00am 19.6 20.2 13.1 66 3.8 WSW 2 6 1 3 1016.1 1014.1 -
27/04:30am 19.7 19.3 12.5 63 4.1 SSW 6 7 3 4 1016.0 1014.0 -
27/04:00am 20.8 20.6 13.5 63 4.3 SSE 7 7 4 4 1016.0 1014.0 -
27/03:30am 19.9 19.4 12.2 61 4.4 E 6 6 3 3 1015.8 1013.8 -
27/03:00am 19.6 19.0 11.6 60 4.5 NE 6 7 3 4 1015.7 1013.7 0.0
27/02:30am 21.7 22.7 13.3 59 4.9 CALM 0 0 0 0 1015.7 1013.7 -
27/02:00am 20.0 19.3 11.5 58 4.8 ENE 6 9 3 5 1016.0 1014.0 -
27/01:30am 21.0 21.5 11.6 55 5.3 CALM 0 0 0 0 1016.2 1014.2 -
27/01:00am 21.8 22.4 11.8 53 5.7 CALM 0 0 0 0 1016.5 1014.4 -
27/12:30am 22.7 22.1 11.7 49 6.3 WNW 6 7 3 4 1016.7 1014.6 -
27/12:00am 23.9 23.4 12.2 48 6.8 W 6 9 3 5 1016.9 1014.8 -
 
Date/Time
CST
Temp
°C
App
Temp
°C
Dew
Point
Rel
Hum
%
Delta-T
°C
Wind Press
QNH
hPa
Press
MSL
hPa
Rain
since 9 am
mm
Dir
 
Spd
km/h
Gust
km/h
Spd
kts
Gust
kts
26/11:30pm 22.6 22.7 11.4 49 6.4 NE 2 9 1 5 1017.0 1014.9 -
26/11:00pm 22.9 23.1 10.7 46 6.9 CALM 0 0 0 0 1016.8 1014.7 -
26/10:30pm 23.2 23.0 10.3 44 7.2 ENE 2 6 1 3 1016.7 1014.6 -
26/10:00pm 23.8 22.9 10.8 44 7.4 ENE 6 7 3 4 1016.7 1014.6 -
26/09:30pm 25.6 25.8 10.6 39 8.5 CALM 0 0 0 0 1016.7 1014.6 -
26/09:00pm 25.6 25.7 10.2 38 8.7 CALM 0 6 0 3 1016.3 1014.3 0.0
26/08:30pm 26.6 25.6 10.3 36 9.3 NNE 6 7 3 4 1016.0 1014.0 -
26/08:00pm 27.2 25.9 10.0 34 9.8 NNE 7 9 4 5 1015.7 1013.7 -
26/07:30pm 27.8 26.0 9.6 32 10.3 NNE 9 13 5 7 1015.3 1013.2 -
26/07:00pm 28.6 26.4 9.3 30 10.9 NNE 11 15 6 8 1015.0 1012.9 -
26/06:30pm 29.7 27.1 9.3 28 11.6 NNE 13 17 7 9 1014.8 1012.7 -
26/06:00pm 30.6 27.0 8.3 25 12.5 NNE 17 20 9 11 1014.5 1012.4 -
26/05:30pm 31.4 28.6 8.4 24 13.0 NNE 13 19 7 10 1014.3 1012.2 -
26/05:00pm 31.8 28.1 8.1 23 13.3 NE 17 26 9 14 1014.1 1012.0 -
26/04:30pm 31.4 27.9 7.1 22 13.4 NNE 15 20 8 11 1014.0 1011.9 -
26/04:00pm 32.6 28.8 7.4 21 14.1 NNE 17 24 9 13 1014.0 1011.9 -
26/03:30pm 32.3 28.0 7.9 22 13.7 NNE 20 30 11 16 1014.1 1012.0 -
26/03:00pm 32.6 30.0 9.4 24 13.4 NNE 13 22 7 12 1014.5 1012.4 -
26/02:30pm 32.0 28.4 8.3 23 13.4 NE 17 28 9 15 1015.0 1012.9 -
26/02:00pm 31.9 28.6 9.4 25 12.9 NE 17 30 9 16 1015.7 1013.7 -
26/01:30pm 32.1 29.4 10.2 26 12.8 NE 15 28 8 15 1016.2 1014.2 -
26/01:00pm 30.8 26.8 9.1 26 12.4 ENE 20 32 11 17 1016.7 1014.6 -
26/12:30pm 31.0 27.5 10.9 29 11.8 ENE 20 28 11 15 1017.4 1015.3 -
26/12:00pm 30.7 28.0 11.6 31 11.3 ENE 17 26 9 14 1017.8 1015.7 -
26/11:00am 28.8 25.5 12.7 37 9.6 ENE 22 28 12 15 1018.8 1016.8 0.0
26/10:30am 28.1 25.8 14.0 42 8.6 ENE 19 24 10 13 1019.4 1017.3 0.0
26/10:00am 26.2 24.1 14.6 48 7.1 E 19 26 10 14 1019.5 1017.4 0.0
26/09:30am 25.7 24.2 15.4 53 6.3 ENE 17 24 9 13 1019.4 1017.3 0.0
26/09:00am 24.1 24.8 17.1 65 4.4 E 9 15 5 8 1019.3 1017.2 0.0
26/08:30am 23.1 23.5 17.3 70 3.6 E 11 13 6 7 1019.2 1017.1 0.0
26/08:00am 22.4 23.3 17.5 74 3.1 E 9 11 5 6 1018.8 1016.8 0.0
26/07:30am 21.7 23.2 17.7 78 2.5 SE 6 9 3 5 1018.5 1016.5 0.0
26/07:00am 20.4 21.3 16.0 76 2.7 E 6 9 3 5 1018.1 1016.1 0.0
26/06:30am 21.4 22.7 17.2 77 2.6 SE 6 9 3 5 1017.7 1015.6 0.0
26/06:00am 21.4 22.5 17.0 76 2.7 ESE 7 9 4 5 1017.2 1015.1 0.0
26/05:30am 21.8 22.7 16.7 73 3.2 ENE 7 9 4 5 1016.9 1014.8 0.0
26/05:00am 21.1 21.5 15.4 70 3.4 E 7 9 4 5 1016.5 1014.4 0.0
26/04:30am 21.8 22.6 15.9 69 3.6 SE 6 9 3 5 1016.5 1014.4 0.0
26/04:00am 20.9 22.7 15.4 71 3.3 CALM 0 0 0 0 1016.3 1014.3 0.0
26/03:30am 21.8 23.6 15.6 68 3.8 CALM 0 0 0 0 1016.2 1014.2 0.0
26/03:00am 22.0 23.8 15.6 67 3.9 CALM 0 0 0 0 1016.2 1014.2 0.0
26/02:30am 22.2 24.0 15.5 66 4.1 CALM 0 0 0 0 1016.2 1014.2 0.0
26/02:00am 23.2 25.2 16.0 64 4.4 CALM 0 0 0 0 1016.6 1014.5 0.0
26/01:30am 23.0 24.5 15.8 64 4.4 N 2 6 1 3 1016.6 1014.5 0.0
26/01:00am 23.7 24.4 16.2 63 4.6 N 7 9 4 5 1016.7 1014.6 0.0
26/12:30am 24.3 25.1 16.3 61 5.0 NNW 7 9 4 5 1016.9 1014.8 0.0
26/12:00am 24.7 25.5 16.4 60 5.2 N 7 9 4 5 1016.9 1014.8 0.0
 
Date/Time
CST
Temp
°C
App
Temp
°C
Dew
Point
Rel
Hum
%
Delta-T
°C
Wind Press
QNH
hPa
Press
MSL
hPa
Rain
since 9 am
mm
Dir
 
Spd
km/h
Gust
km/h
Spd
kts
Gust
kts
25/11:30pm 25.2 25.7 16.6 59 5.4 NNW 9 11 5 6 1016.8 1014.7 0.0
25/11:00pm 24.8 25.4 15.7 57 5.6 WNW 7 9 4 5 1016.8 1014.7 0.0
25/10:30pm 25.1 25.0 13.9 49 6.7 NE 7 9 4 5 1016.8 1014.7 0.0
25/10:00pm 25.6 25.6 13.5 47 7.2 NNE 6 7 3 4 1016.6 1014.5 0.0
25/09:30pm 26.3 26.0 12.7 43 8.0 ENE 6 7 3 4 1016.3 1014.3 0.0
25/09:00pm 25.8 26.4 11.9 42 8.1 CALM 0 0 0 0 1016.2 1014.2 0.0
25/08:30pm 26.7 27.3 12.0 40 8.6 CALM 0 0 0 0 1015.9 1013.9 0.0
25/08:00pm 27.7 28.1 11.3 36 9.5 CALM 0 6 0 3 1015.6 1013.5 0.0
25/07:30pm 29.1 28.5 11.6 33 10.3 ESE 6 7 3 4 1015.3 1013.2 0.0
25/07:00pm 29.7 28.5 11.7 33 10.6 ENE 9 11 5 6 1015.0 1012.9 0.0

Other Formats:

Comma delimited format used in spreadsheet applications
http://www.bom.gov.au/fwo/IDD60801/IDD60801.94141.axf

JavaScript Object Notation format (JSON) in row-major order
http://www.bom.gov.au/fwo/IDD60801/IDD60801.94141.json